createdAt,value
2023-04-11T00:00:45.545Z,6.30
2023-04-11T00:01:50.178Z,7.35
2023-04-11T00:02:52.896Z,6.25
2023-04-11T00:03:57.138Z,6.85
2023-04-11T00:05:01.232Z,5.88
2023-04-11T00:06:05.190Z,8.32
2023-04-11T00:07:07.949Z,8.18
2023-04-11T00:08:11.313Z,6.75
2023-04-11T00:09:14.288Z,5.30
2023-04-11T00:10:18.129Z,5.03
2023-04-11T00:11:21.178Z,7.47
2023-04-11T00:12:24.716Z,5.10
2023-04-11T00:13:27.059Z,5.70
2023-04-11T00:14:32.425Z,5.20
2023-04-11T00:15:39.493Z,6.72
2023-04-11T00:16:43.584Z,6.55
2023-04-11T00:17:46.026Z,5.68
2023-04-11T00:18:49.390Z,7.40
2023-04-11T00:19:53.498Z,5.53
2023-04-11T00:20:56.761Z,6.28
2023-04-11T00:21:59.048Z,5.73
2023-04-11T00:23:02.622Z,6.32
2023-04-11T00:24:06.927Z,5.25
2023-04-11T00:25:11.110Z,6.35
2023-04-11T00:26:13.544Z,5.43
2023-04-11T00:27:17.183Z,4.22
2023-04-11T00:28:19.536Z,5.78
2023-04-11T00:29:22.903Z,7.95
2023-04-11T00:30:25.380Z,4.88
2023-04-11T00:31:30.635Z,3.20
2023-04-11T00:32:33.037Z,7.20
2023-04-11T00:33:38.620Z,6.15
2023-04-11T00:34:42.580Z,4.68
2023-04-11T00:35:46.373Z,4.32
2023-04-11T00:36:49.687Z,6.20
2023-04-11T00:37:56.420Z,4.15
2023-04-11T00:39:01.441Z,4.25
2023-04-11T00:40:07.793Z,4.80
2023-04-11T00:41:10.501Z,4.75
2023-04-11T00:42:14.572Z,5.85
2023-04-11T00:43:16.834Z,4.63
2023-04-11T00:44:20.413Z,6.13
2023-04-11T00:45:22.854Z,4.35
2023-04-11T00:46:28.216Z,3.97
2023-04-11T00:47:33.594Z,9.82
2023-04-11T00:48:37.361Z,3.67
2023-04-11T00:49:41.228Z,5.65
2023-04-11T00:50:45.126Z,4.18
2023-04-11T00:51:48.010Z,4.13
2023-04-11T00:52:53.142Z,3.40
2023-04-11T00:53:55.655Z,3.40
2023-04-11T00:54:59.704Z,3.70
2023-04-11T00:56:02.259Z,2.40
2023-04-11T00:57:07.254Z,3.17
2023-04-11T00:58:09.627Z,3.97
2023-04-11T00:59:13.717Z,4.28
2023-04-11T01:00:16.742Z,4.18
2023-04-11T01:01:25.026Z,3.72
2023-04-11T01:02:28.173Z,3.72
2023-04-11T01:03:33.315Z,2.65
2023-04-11T01:04:36.647Z,3.20
2023-04-11T01:05:40.242Z,4.18
2023-04-11T01:06:42.759Z,2.78
2023-04-11T01:07:50.600Z,3.13
2023-04-11T01:08:53.776Z,3.75
2023-04-11T01:09:58.799Z,3.42
2023-04-11T01:11:02.736Z,2.78
2023-04-11T01:12:07.767Z,4.47
2023-04-11T01:13:10.989Z,3.80
2023-04-11T01:14:14.632Z,3.33
2023-04-11T01:15:18.346Z,4.07
2023-04-11T01:16:21.937Z,3.58
2023-04-11T01:17:27.419Z,5.93
2023-04-11T01:18:32.177Z,4.00
2023-04-11T01:19:36.266Z,3.92
2023-04-11T01:20:38.839Z,5.25
2023-04-11T01:21:43.350Z,3.90
2023-04-11T01:22:47.441Z,4.70
2023-04-11T01:23:54.502Z,5.22
2023-04-11T01:24:57.343Z,3.67
2023-04-11T01:26:01.190Z,3.67
2023-04-11T01:27:04.289Z,3.55
2023-04-11T01:28:08.940Z,3.90
2023-04-11T01:29:11.768Z,3.17
2023-04-11T01:30:16.598Z,4.35
2023-04-11T01:31:19.310Z,3.80
2023-04-11T01:32:23.013Z,5.30
2023-04-11T01:33:25.872Z,4.97
2023-04-11T01:34:30.236Z,3.22
2023-04-11T01:35:34.384Z,4.10
2023-04-11T01:36:37.816Z,4.17
2023-04-11T01:37:45.303Z,6.28
2023-04-11T01:38:49.896Z,3.03
2023-04-11T01:39:54.289Z,3.90
2023-04-11T01:40:59.163Z,4.07
2023-04-11T01:42:03.756Z,7.65
2023-04-11T01:43:08.752Z,6.65
2023-04-11T01:44:11.966Z,4.82
2023-04-11T01:45:15.732Z,6.28
2023-04-11T01:46:18.142Z,4.53
2023-04-11T01:47:21.615Z,3.10
2023-04-11T01:48:24.267Z,4.95
2023-04-11T01:49:27.927Z,5.32
2023-04-11T01:50:30.624Z,3.95
2023-04-11T01:51:34.215Z,3.33
2023-04-11T01:52:36.936Z,4.68
2023-04-11T01:53:40.661Z,4.18
2023-04-11T01:54:43.226Z,3.42
2023-04-11T01:55:48.040Z,7.53
2023-04-11T01:56:50.581Z,4.97
2023-04-11T01:57:54.147Z,7.33
2023-04-11T01:58:59.189Z,4.28
2023-04-11T02:00:02.546Z,4.85
2023-04-11T02:01:05.770Z,6.45
2023-04-11T02:02:09.422Z,6.13
2023-04-11T02:03:12.531Z,4.68
2023-04-11T02:04:16.806Z,4.55
2023-04-11T02:05:20.915Z,5.90
2023-04-11T02:06:24.267Z,3.97
2023-04-11T02:07:27.641Z,4.68
2023-04-11T02:08:31.079Z,6.27
2023-04-11T02:09:33.544Z,3.90
2023-04-11T02:10:36.983Z,7.57
2023-04-11T02:11:41.143Z,4.05
2023-04-11T02:12:44.500Z,5.50
2023-04-11T02:13:47.217Z,5.22
2023-04-11T02:14:50.762Z,3.70
2023-04-11T02:15:53.032Z,6.63
2023-04-11T02:16:57.606Z,7.03
2023-04-11T02:18:00.498Z,5.25
2023-04-11T02:19:04.291Z,4.30
2023-04-11T02:20:08.630Z,4.55
2023-04-11T02:21:12.128Z,3.65
2023-04-11T02:22:14.986Z,3.13
2023-04-11T02:23:18.402Z,3.95
2023-04-11T02:24:20.799Z,4.28
2023-04-11T02:25:24.138Z,4.40
2023-04-11T02:26:27.057Z,4.05
2023-04-11T02:27:32.083Z,4.82
2023-04-11T02:28:34.848Z,3.92
2023-04-11T02:29:38.499Z,4.20
2023-04-11T02:30:41.529Z,5.10
2023-04-11T02:31:44.937Z,3.00
2023-04-11T02:32:49.556Z,8.68
2023-04-11T02:33:53.008Z,5.78
2023-04-11T02:34:56.209Z,5.40
2023-04-11T02:36:00.341Z,4.82
2023-04-11T02:37:03.218Z,5.07
2023-04-11T02:38:06.909Z,4.63
2023-04-11T02:39:09.418Z,4.32
2023-04-11T02:40:13.686Z,5.37
2023-04-11T02:41:16.244Z,6.43
2023-04-11T02:42:19.891Z,5.32
2023-04-11T02:43:25.092Z,4.38
2023-04-11T02:44:29.568Z,5.03
2023-04-11T02:45:33.165Z,6.90
2023-04-11T02:46:35.697Z,7.18
2023-04-11T02:47:39.435Z,4.50
2023-04-11T02:48:41.854Z,5.05
2023-04-11T02:49:45.253Z,5.15
2023-04-11T02:50:47.653Z,5.13
2023-04-11T02:51:51.236Z,3.58
2023-04-11T02:52:53.880Z,4.72
2023-04-11T02:53:57.521Z,5.18
2023-04-11T02:54:59.933Z,4.88
2023-04-11T02:56:03.548Z,4.32
2023-04-11T02:57:07.094Z,4.68
2023-04-11T02:58:09.403Z,5.75
2023-04-11T02:59:14.178Z,5.15
2023-04-11T03:00:17.235Z,6.50
2023-04-11T03:01:21.818Z,3.90
2023-04-11T03:02:24.791Z,5.38
2023-04-11T03:03:28.539Z,3.90
2023-04-11T03:04:31.800Z,5.90
2023-04-11T03:05:35.509Z,5.35
2023-04-11T03:06:38.231Z,5.53
2023-04-11T03:07:42.234Z,5.38
2023-04-11T03:08:44.730Z,6.28
2023-04-11T03:09:48.194Z,5.07
2023-04-11T03:10:50.611Z,7.55
2023-04-11T03:11:54.180Z,6.47
2023-04-11T03:12:56.638Z,4.90
2023-04-11T03:14:00.182Z,6.38
2023-04-11T03:15:05.085Z,7.18
2023-04-11T03:16:09.424Z,8.40
2023-04-11T03:17:11.798Z,8.45
2023-04-11T03:18:15.205Z,6.22
2023-04-11T03:19:17.479Z,7.78
2023-04-11T03:20:21.764Z,9.18
2023-04-11T03:21:24.051Z,7.80
2023-04-11T03:22:27.427Z,8.47
2023-04-11T03:23:30.348Z,7.43
2023-04-11T03:24:33.652Z,7.00
2023-04-11T03:25:37.884Z,7.25
2023-04-11T03:26:42.055Z,7.70
2023-04-11T03:27:44.732Z,6.82
2023-04-11T03:28:48.204Z,10.07
2023-04-11T03:29:50.680Z,10.10
2023-04-11T03:30:55.815Z,6.55
2023-04-11T03:31:58.517Z,8.00
2023-04-11T03:33:01.980Z,6.37
2023-04-11T03:34:04.733Z,7.25
2023-04-11T03:35:08.580Z,6.72
2023-04-11T03:36:12.411Z,7.95
2023-04-11T03:37:14.857Z,5.30
2023-04-11T03:38:18.571Z,8.18
2023-04-11T03:39:22.160Z,10.43
2023-04-11T03:40:25.732Z,6.47
2023-04-11T03:41:28.674Z,6.88
2023-04-11T03:42:32.035Z,5.97
2023-04-11T03:43:34.394Z,12.60
2023-04-11T03:44:38.181Z,7.03
2023-04-11T03:45:41.220Z,6.28
2023-04-11T03:46:46.176Z,8.43
2023-04-11T03:47:48.562Z,8.88
2023-04-11T03:48:52.311Z,10.88
2023-04-11T03:49:54.630Z,7.13
2023-04-11T03:50:58.634Z,9.88
2023-04-11T03:52:01.635Z,6.82
2023-04-11T03:53:05.242Z,7.43
2023-04-11T03:54:07.681Z,7.10
2023-04-11T03:55:11.511Z,8.50
2023-04-11T03:56:13.962Z,7.28
2023-04-11T03:57:17.405Z,9.57
2023-04-11T03:58:20.160Z,7.93
2023-04-11T03:59:24.164Z,6.40
2023-04-11T04:00:27.192Z,8.38
2023-04-11T04:01:32.228Z,8.00
2023-04-11T04:02:36.470Z,9.55
2023-04-11T04:03:40.328Z,10.98
2023-04-11T04:04:49.134Z,8.93
2023-04-11T04:05:52.614Z,8.07
2023-04-11T04:06:57.114Z,13.23
2023-04-11T04:08:00.886Z,11.20
2023-04-11T04:09:04.371Z,9.75
2023-04-11T04:10:08.816Z,11.45
2023-04-11T04:11:11.019Z,13.20
2023-04-11T04:12:14.737Z,15.13
2023-04-11T04:13:17.196Z,13.63
2023-04-11T04:14:20.761Z,13.60
2023-04-11T04:15:23.402Z,14.23
2023-04-11T04:16:26.860Z,11.80
2023-04-11T04:17:29.440Z,14.98
2023-04-11T04:18:34.880Z,12.57
2023-04-11T04:19:37.770Z,14.48
2023-04-11T04:20:43.069Z,12.63
2023-04-11T04:21:46.025Z,13.25
2023-04-11T04:22:49.383Z,12.43
2023-04-11T04:23:51.723Z,16.45
2023-04-11T04:24:58.274Z,17.17
2023-04-11T04:26:02.387Z,16.83
2023-04-11T04:27:09.128Z,16.33
2023-04-11T04:28:12.992Z,15.88
2023-04-11T04:29:18.229Z,17.77
2023-04-11T04:30:22.158Z,19.67
2023-04-11T04:31:29.869Z,18.02
2023-04-11T04:32:32.791Z,17.27
2023-04-11T04:33:37.751Z,18.48
2023-04-11T04:34:46.756Z,19.52
2023-04-11T04:35:51.658Z,15.13
2023-04-11T04:36:56.770Z,12.80
2023-04-11T04:38:06.404Z,15.63
2023-04-11T04:39:10.104Z,18.95
2023-04-11T04:40:14.729Z,23.13
2023-04-11T04:41:17.198Z,18.80
2023-04-11T04:42:20.716Z,15.73
2023-04-11T04:43:24.664Z,16.63
2023-04-11T04:44:29.428Z,19.20
2023-04-11T04:45:31.952Z,17.67
2023-04-11T04:46:37.063Z,16.60
2023-04-11T04:47:39.383Z,18.43
2023-04-11T04:48:44.171Z,16.00
2023-04-11T04:49:46.674Z,13.77
2023-04-11T04:50:50.802Z,14.43
2023-04-11T04:51:53.137Z,16.15
2023-04-11T04:52:56.833Z,13.55
2023-04-11T04:53:59.931Z,17.27
2023-04-11T04:55:04.053Z,13.50
2023-04-11T04:56:07.670Z,10.82
2023-04-11T04:57:11.425Z,14.27
2023-04-11T04:58:14.498Z,11.27
2023-04-11T04:59:18.861Z,14.05
2023-04-11T05:00:23.244Z,12.32
2023-04-11T05:01:27.844Z,13.13
2023-04-11T05:02:30.956Z,12.77
2023-04-11T05:03:35.845Z,14.13
2023-04-11T05:04:39.921Z,14.45
2023-04-11T05:05:43.586Z,13.32
2023-04-11T05:06:45.936Z,13.27
2023-04-11T05:07:49.947Z,11.80
2023-04-11T05:08:53.665Z,11.17
2023-04-11T05:09:57.633Z,10.90
2023-04-11T05:11:00.231Z,10.32
2023-04-11T05:12:05.166Z,11.70
2023-04-11T05:13:09.733Z,13.55
2023-04-11T05:14:13.162Z,9.75
2023-04-11T05:15:15.572Z,12.00
2023-04-11T05:16:18.993Z,10.65
2023-04-11T05:17:22.790Z,11.77
2023-04-11T05:18:29.570Z,11.13
2023-04-11T05:19:32.480Z,10.07
2023-04-11T05:20:38.405Z,13.32
2023-04-11T05:21:40.933Z,9.88
2023-04-11T05:22:44.644Z,9.60
2023-04-11T05:23:47.223Z,6.30
2023-04-11T05:24:50.853Z,8.18
2023-04-11T05:25:53.214Z,10.57
2023-04-11T05:26:56.761Z,10.57
2023-04-11T05:27:59.270Z,10.82
2023-04-11T05:29:02.956Z,11.32
2023-04-11T05:30:06.440Z,10.73
2023-04-11T05:31:12.253Z,16.13
2023-04-11T05:32:16.159Z,15.27
2023-04-11T05:33:18.687Z,12.55
2023-04-11T05:34:22.467Z,11.65
2023-04-11T05:35:25.342Z,11.23
2023-04-11T05:36:30.169Z,11.70
2023-04-11T05:37:32.880Z,11.98
2023-04-11T05:38:36.200Z,8.82
2023-04-11T05:39:38.389Z,12.50
2023-04-11T05:40:41.740Z,10.70
2023-04-11T05:41:45.250Z,8.57
2023-04-11T05:42:47.567Z,9.32
2023-04-11T05:43:50.993Z,12.73
2023-04-11T05:44:53.567Z,11.90
2023-04-11T05:45:57.556Z,10.52
2023-04-11T05:47:00.970Z,12.07
2023-04-11T05:48:04.466Z,9.48
2023-04-11T05:49:07.923Z,10.00
2023-04-11T05:50:12.154Z,10.70
2023-04-11T05:51:14.549Z,9.47
2023-04-11T05:52:19.677Z,10.63
2023-04-11T05:53:23.111Z,9.02
2023-04-11T05:54:32.949Z,9.82
2023-04-11T05:55:36.973Z,15.10
2023-04-11T05:56:42.589Z,9.63
2023-04-11T05:57:45.262Z,11.32
2023-04-11T05:58:48.804Z,9.07
2023-04-11T05:59:53.222Z,9.23
2023-04-11T06:00:57.863Z,9.68
2023-04-11T06:02:01.037Z,9.60
2023-04-11T06:03:05.289Z,8.75
2023-04-11T06:04:08.938Z,7.38
2023-04-11T06:05:12.221Z,5.50
2023-04-11T06:06:15.950Z,7.00
2023-04-11T06:07:20.077Z,8.45
2023-04-11T06:08:23.642Z,7.13
2023-04-11T06:09:26.902Z,8.73
2023-04-11T06:10:31.757Z,9.23
2023-04-11T06:11:34.432Z,9.10
2023-04-11T06:12:38.200Z,8.47
2023-04-11T06:13:41.978Z,9.38
2023-04-11T06:14:44.257Z,8.75
2023-04-11T06:15:47.940Z,10.05
2023-04-11T06:16:51.564Z,7.57
2023-04-11T06:17:54.315Z,9.20
2023-04-11T06:18:57.862Z,8.88
2023-04-11T06:20:00.198Z,12.68
2023-04-11T06:21:03.729Z,10.30
2023-04-11T06:22:06.098Z,13.40
2023-04-11T06:23:11.430Z,10.93
2023-04-11T06:24:15.866Z,13.57
2023-04-11T06:25:20.571Z,11.43
2023-04-11T06:26:24.362Z,10.30
2023-04-11T06:27:27.131Z,13.80
2023-04-11T06:28:30.806Z,17.67
2023-04-11T06:29:33.122Z,11.43
2023-04-11T06:30:36.350Z,22.17
2023-04-11T06:31:38.606Z,15.10
2023-04-11T06:32:42.498Z,10.40
2023-04-11T06:33:45.876Z,17.97
2023-04-11T06:34:49.248Z,12.95
2023-04-11T06:35:53.246Z,16.40
2023-04-11T06:36:55.663Z,14.13
2023-04-11T06:37:59.006Z,14.05
2023-04-11T06:39:05.796Z,13.32
2023-04-11T06:40:10.623Z,14.95
2023-04-11T06:41:13.361Z,8.73
2023-04-11T06:42:16.692Z,11.15
2023-04-11T06:43:20.964Z,12.25
2023-04-11T06:44:23.713Z,14.43
2023-04-11T06:45:27.442Z,13.38
2023-04-11T06:46:29.912Z,16.25
2023-04-11T06:47:33.420Z,12.18
2023-04-11T06:48:37.304Z,11.60
2023-04-11T06:49:39.703Z,11.07
2023-04-11T06:50:43.301Z,10.00
2023-04-11T06:51:47.606Z,14.43
2023-04-11T06:52:51.012Z,14.88
2023-04-11T06:53:54.385Z,12.27
2023-04-11T06:54:59.247Z,13.57
2023-04-11T06:56:01.600Z,13.77
2023-04-11T06:57:04.935Z,15.82
2023-04-11T06:58:08.266Z,14.88
2023-04-11T06:59:11.346Z,12.27
2023-04-11T07:00:16.493Z,18.13
2023-04-11T07:01:21.129Z,11.02
2023-04-11T07:02:25.912Z,14.18
2023-04-11T07:03:28.821Z,13.10
2023-04-11T07:04:32.469Z,14.05
2023-04-11T07:05:37.525Z,13.27
2023-04-11T07:06:42.307Z,12.88
2023-04-11T07:07:46.542Z,14.55
2023-04-11T07:08:49.122Z,12.40
2023-04-11T07:09:52.391Z,9.82
2023-04-11T07:10:57.187Z,9.57
2023-04-11T07:12:00.007Z,9.82
2023-04-11T07:13:03.475Z,14.38
2023-04-11T07:14:06.139Z,11.90
2023-04-11T07:15:11.218Z,12.48
2023-04-11T07:16:13.402Z,11.67
2023-04-11T07:17:18.161Z,13.10
2023-04-11T07:18:20.490Z,14.18
2023-04-11T07:19:23.954Z,11.90
2023-04-11T07:20:26.238Z,11.60
2023-04-11T07:21:30.343Z,11.35
2023-04-11T07:22:33.099Z,11.82
2023-04-11T07:23:36.491Z,13.60
2023-04-11T07:24:39.919Z,11.40
2023-04-11T07:25:43.078Z,8.70
2023-04-11T07:26:50.839Z,10.53
2023-04-11T07:27:54.599Z,8.85
2023-04-11T07:28:57.162Z,10.57
2023-04-11T07:30:00.458Z,9.10
2023-04-11T07:31:02.725Z,12.13
2023-04-11T07:32:06.914Z,9.95
2023-04-11T07:33:11.233Z,11.50
2023-04-11T07:34:14.494Z,12.48
2023-04-11T07:35:17.218Z,12.30
2023-04-11T07:36:20.854Z,9.55
2023-04-11T07:37:24.602Z,11.00
2023-04-11T07:38:29.940Z,10.73
2023-04-11T07:39:34.129Z,8.02
2023-04-11T07:40:36.698Z,11.82
2023-04-11T07:41:40.890Z,11.90
2023-04-11T07:42:46.629Z,11.52
2023-04-11T07:43:50.736Z,13.77
2023-04-11T07:44:54.810Z,10.65
2023-04-11T07:45:58.523Z,12.07
2023-04-11T07:47:03.411Z,12.98
2023-04-11T07:48:06.705Z,12.70
2023-04-11T07:49:10.038Z,9.93
2023-04-11T07:50:12.393Z,11.18
2023-04-11T07:51:17.144Z,13.73
2023-04-11T07:52:21.221Z,12.15
2023-04-11T07:53:23.945Z,10.52
2023-04-11T07:54:28.843Z,14.25
2023-04-11T07:55:31.570Z,10.98
2023-04-11T07:56:35.169Z,13.13
2023-04-11T07:57:37.578Z,12.30
2023-04-11T07:58:42.875Z,11.97
2023-04-11T07:59:46.504Z,12.13
2023-04-11T08:00:50.920Z,9.20
2023-04-11T08:02:00.710Z,10.68
2023-04-11T08:03:07.587Z,10.00
2023-04-11T08:04:11.287Z,16.25
2023-04-11T08:05:15.524Z,10.30
2023-04-11T08:06:19.164Z,12.07
2023-04-11T08:07:21.455Z,12.02
2023-04-11T08:08:24.810Z,11.02
2023-04-11T08:09:27.827Z,10.13
2023-04-11T08:10:31.323Z,12.30
2023-04-11T08:11:34.355Z,13.60
2023-04-11T08:12:38.098Z,14.70
2023-04-11T08:13:43.497Z,15.25
2023-04-11T08:14:46.811Z,13.02
2023-04-11T08:15:50.464Z,10.23
2023-04-11T08:16:53.862Z,13.73
2023-04-11T08:17:57.973Z,16.27
2023-04-11T08:19:00.250Z,12.40
2023-04-11T08:20:05.125Z,11.73
2023-04-11T08:21:09.223Z,15.95
2023-04-11T08:22:11.952Z,18.25
2023-04-11T08:23:15.538Z,14.75
2023-04-11T08:24:18.013Z,15.68
2023-04-11T08:25:23.143Z,12.85
2023-04-11T08:26:26.616Z,14.27
2023-04-11T08:27:29.488Z,15.68
2023-04-11T08:28:33.338Z,17.60
2023-04-11T08:29:37.087Z,16.42
2023-04-11T08:30:40.495Z,15.77
2023-04-11T08:31:45.170Z,15.23
2023-04-11T08:32:47.766Z,15.20
2023-04-11T08:33:51.497Z,16.23
2023-04-11T08:34:53.903Z,16.77
2023-04-11T08:35:57.491Z,18.85
2023-04-11T08:37:00.013Z,14.93
2023-04-11T08:38:03.918Z,14.95
2023-04-11T08:39:06.889Z,15.38
2023-04-11T08:40:11.966Z,15.25
2023-04-11T08:41:15.771Z,18.10
2023-04-11T08:42:26.374Z,15.63
2023-04-11T08:43:30.114Z,15.73
2023-04-11T08:44:32.777Z,16.20
2023-04-11T08:45:37.726Z,13.20
2023-04-11T08:46:44.299Z,14.65
2023-04-11T08:47:46.795Z,18.52
2023-04-11T08:48:50.427Z,14.73
2023-04-11T08:49:53.556Z,17.20
2023-04-11T08:50:56.923Z,16.60
2023-04-11T08:52:00.016Z,16.00
2023-04-11T08:53:05.047Z,16.50
2023-04-11T08:54:10.316Z,16.88
2023-04-11T08:55:13.336Z,16.58
2023-04-11T08:56:17.886Z,16.95
2023-04-11T08:57:26.261Z,18.95
2023-04-11T08:58:29.960Z,15.40
2023-04-11T08:59:33.551Z,18.08
2023-04-11T09:00:38.460Z,16.17
2023-04-11T09:01:41.203Z,20.70
2023-04-11T09:03:01.099Z,15.83
2023-04-11T09:04:06.422Z,14.60
2023-04-11T09:05:24.546Z,16.48
2023-04-11T09:06:31.043Z,19.35
2023-04-11T09:07:50.282Z,19.23
2023-04-11T09:08:53.749Z,16.65
2023-04-11T09:09:57.385Z,16.33
2023-04-11T09:11:01.668Z,18.70
2023-04-11T09:12:05.660Z,17.67
2023-04-11T09:13:21.474Z,18.52
2023-04-11T09:14:25.361Z,18.40
2023-04-11T09:15:30.469Z,21.75
2023-04-11T09:16:34.896Z,17.92
2023-04-11T09:17:42.987Z,17.23
2023-04-11T09:18:47.086Z,18.92
2023-04-11T09:19:50.502Z,17.35
2023-04-11T09:21:00.114Z,17.83
2023-04-11T09:22:06.259Z,17.30
2023-04-11T09:23:25.457Z,19.08
2023-04-11T09:24:31.983Z,15.23
2023-04-11T09:25:45.801Z,21.67
2023-04-11T09:26:48.112Z,17.38
2023-04-11T09:28:07.916Z,18.80
2023-04-11T09:29:10.596Z,21.42
2023-04-11T09:30:23.797Z,22.20
2023-04-11T09:31:41.989Z,18.70
2023-04-11T09:32:46.220Z,19.98
2023-04-11T09:33:56.822Z,22.42
2023-04-11T09:35:10.429Z,18.75
2023-04-11T09:36:21.340Z,18.88
2023-04-11T09:37:24.213Z,21.30
2023-04-11T09:38:32.039Z,20.08
2023-04-11T09:39:35.935Z,20.05
2023-04-11T09:40:43.169Z,19.15
2023-04-11T09:41:47.109Z,19.92
2023-04-11T09:42:57.745Z,19.73
2023-04-11T09:44:01.057Z,18.35
2023-04-11T09:45:04.913Z,20.30
2023-04-11T09:46:12.403Z,19.52
2023-04-11T09:47:16.532Z,19.95
2023-04-11T09:48:21.134Z,19.60
2023-04-11T09:49:24.783Z,21.77
2023-04-11T09:50:29.576Z,18.67
2023-04-11T09:51:36.593Z,21.15
2023-04-11T09:52:43.172Z,22.55
2023-04-11T09:53:47.242Z,21.10
2023-04-11T09:54:52.421Z,21.38
2023-04-11T09:55:56.346Z,22.30
2023-04-11T09:57:00.782Z,21.35
2023-04-11T09:58:06.156Z,27.58
2023-04-11T09:59:10.156Z,20.70
2023-04-11T10:00:18.368Z,22.83
2023-04-11T10:01:22.166Z,26.08
2023-04-11T10:02:27.592Z,19.70
2023-04-11T10:03:34.917Z,23.40
2023-04-11T10:04:38.678Z,20.70
2023-04-11T10:05:43.188Z,19.50
2023-04-11T10:06:54.651Z,23.95
2023-04-11T10:08:05.975Z,26.00
2023-04-11T10:09:11.683Z,22.90
2023-04-11T10:10:21.244Z,22.60
2023-04-11T10:11:24.889Z,21.25
2023-04-11T10:12:31.929Z,23.80
2023-04-11T10:13:42.521Z,19.45
2023-04-11T10:14:45.897Z,19.88
2023-04-11T10:16:08.583Z,20.80
2023-04-11T10:17:13.296Z,22.77
2023-04-11T10:18:18.225Z,19.02
2023-04-11T10:19:24.293Z,22.45
2023-04-11T10:20:46.245Z,21.65
2023-04-11T10:21:48.916Z,19.53
2023-04-11T10:23:02.244Z,20.10
2023-04-11T10:24:09.269Z,20.83
2023-04-11T10:25:20.334Z,19.98
2023-04-11T10:26:50.764Z,19.30
2023-04-11T10:27:54.584Z,24.85
2023-04-11T10:28:58.283Z,19.30
2023-04-11T10:30:01.999Z,20.00
2023-04-11T10:31:10.276Z,21.02
2023-04-11T10:32:19.373Z,22.45
2023-04-11T10:33:26.266Z,20.53
2023-04-11T10:34:29.830Z,20.92
2023-04-11T10:35:32.544Z,20.17
2023-04-11T10:37:03.563Z,23.85
2023-04-11T10:38:53.839Z,19.42
2023-04-11T10:40:10.287Z,21.77
2023-04-11T10:41:19.490Z,19.95
2023-04-11T10:42:29.002Z,19.50
2023-04-11T10:43:31.372Z,19.08
2023-04-11T10:44:34.644Z,22.42
2023-04-11T10:45:40.456Z,18.60
2023-04-11T10:46:48.959Z,20.55
2023-04-11T10:48:11.924Z,20.88
2023-04-11T10:49:33.832Z,18.38
2023-04-11T10:50:42.557Z,17.80
2023-04-11T10:51:46.578Z,16.25
2023-04-11T10:52:49.026Z,18.38
2023-04-11T10:53:52.922Z,14.48
2023-04-11T10:54:55.786Z,13.68
2023-04-11T10:55:59.497Z,15.25
2023-04-11T10:57:02.528Z,13.97
2023-04-11T10:58:07.534Z,14.02
2023-04-11T10:59:57.125Z,18.58
2023-04-11T11:01:37.187Z,15.63
2023-04-11T11:02:47.183Z,12.75
2023-04-11T11:03:57.057Z,14.50
2023-04-11T11:05:03.534Z,13.35
2023-04-11T11:06:08.466Z,13.93
2023-04-11T11:07:15.831Z,14.27
2023-04-11T11:08:30.624Z,12.93
2023-04-11T11:09:35.924Z,15.67
2023-04-11T11:10:40.147Z,15.30
2023-04-11T11:11:44.076Z,14.52
2023-04-11T11:12:54.091Z,14.23
2023-04-11T11:13:57.751Z,12.27
2023-04-11T11:15:13.333Z,11.52
2023-04-11T11:16:17.852Z,11.38
2023-04-11T11:17:20.305Z,10.50
2023-04-11T11:18:24.045Z,11.85
2023-04-11T11:19:27.533Z,10.15
2023-04-11T11:20:31.386Z,9.70
2023-04-11T11:21:34.994Z,11.75
2023-04-11T11:22:37.348Z,9.48
2023-04-11T11:23:41.032Z,9.90
2023-04-11T11:24:43.451Z,7.07
2023-04-11T11:25:55.044Z,7.88
2023-04-11T11:26:59.443Z,8.52
2023-04-11T11:28:04.003Z,8.88
2023-04-11T11:29:08.253Z,8.43
2023-04-11T11:30:11.488Z,9.48
2023-04-11T11:31:16.219Z,8.33
2023-04-11T11:32:29.314Z,8.68
2023-04-11T11:33:34.324Z,7.53
2023-04-11T11:34:37.685Z,7.97
2023-04-11T11:35:42.834Z,8.52
2023-04-11T11:36:47.824Z,8.20
2023-04-11T11:37:52.496Z,5.72
2023-04-11T11:38:56.449Z,10.77
2023-04-11T11:39:59.273Z,7.90
2023-04-11T11:41:03.742Z,5.45
2023-04-11T11:42:07.394Z,8.87
2023-04-11T11:43:09.837Z,5.82
2023-04-11T11:44:23.614Z,7.13
2023-04-11T11:45:28.348Z,5.72
2023-04-11T11:46:33.914Z,5.40
2023-04-11T11:47:43.651Z,6.55
2023-04-11T11:49:00.681Z,6.63
2023-04-11T11:50:04.388Z,7.75
2023-04-11T11:51:09.940Z,5.55
2023-04-11T11:52:12.340Z,4.70
2023-04-11T11:53:17.282Z,6.47
2023-04-11T11:54:19.750Z,5.57
2023-04-11T11:55:34.400Z,5.90
2023-04-11T11:56:38.686Z,7.72
2023-04-11T11:57:45.288Z,6.55
2023-04-11T11:58:49.672Z,8.63
2023-04-11T11:59:56.303Z,5.00
2023-04-11T12:00:59.839Z,6.30
2023-04-11T12:02:04.934Z,5.60
2023-04-11T12:03:11.028Z,6.82
2023-04-11T12:04:15.784Z,7.17
2023-04-11T12:05:19.106Z,5.60
2023-04-11T12:06:24.926Z,8.25
2023-04-11T12:07:30.840Z,6.82
2023-04-11T12:08:34.999Z,5.03
2023-04-11T12:09:37.281Z,6.10
2023-04-11T12:10:42.136Z,6.45
2023-04-11T12:11:46.210Z,6.85
2023-04-11T12:12:53.651Z,6.25
2023-04-11T12:13:58.324Z,5.18
2023-04-11T12:15:01.706Z,6.07
2023-04-11T12:16:05.260Z,5.00
2023-04-11T12:17:09.157Z,4.95
2023-04-11T12:18:12.565Z,5.78
2023-04-11T12:19:16.128Z,9.50
2023-04-11T12:20:22.876Z,7.45
2023-04-11T12:21:27.943Z,7.15
2023-04-11T12:22:30.230Z,5.82
2023-04-11T12:23:33.740Z,8.30
2023-04-11T12:24:35.916Z,11.05
2023-04-11T12:25:39.234Z,7.60
2023-04-11T12:27:02.466Z,6.35
2023-04-11T12:28:06.433Z,6.68
2023-04-11T12:29:10.515Z,7.10
2023-04-11T12:30:15.532Z,7.20
2023-04-11T12:31:20.259Z,7.32
2023-04-11T12:32:24.051Z,8.80
2023-04-11T12:33:28.198Z,8.30
2023-04-11T12:34:31.145Z,7.13
2023-04-11T12:35:35.065Z,6.68
2023-04-11T12:36:38.861Z,5.47
2023-04-11T12:37:42.640Z,4.30
2023-04-11T12:38:46.663Z,6.63
2023-04-11T12:39:49.246Z,5.75
2023-04-11T12:41:00.349Z,6.22
2023-04-11T12:42:12.008Z,5.97
2023-04-11T12:43:15.614Z,6.97
2023-04-11T12:44:18.288Z,6.28
2023-04-11T12:45:21.906Z,5.38
2023-04-11T12:46:24.510Z,6.40
2023-04-11T12:47:28.227Z,7.17
2023-04-11T12:48:31.762Z,5.90
2023-04-11T12:49:34.481Z,6.82
2023-04-11T12:50:38.165Z,7.05
2023-04-11T12:51:42.987Z,4.93
2023-04-11T12:52:45.552Z,7.53
2023-04-11T12:53:48.993Z,3.63
2023-04-11T12:54:51.202Z,4.70
2023-04-11T12:55:55.014Z,6.28
2023-04-11T12:56:58.382Z,5.07
2023-04-11T12:58:02.947Z,6.90
2023-04-11T12:59:05.302Z,5.22
2023-04-11T13:00:11.577Z,7.07
2023-04-11T13:01:16.482Z,6.07
2023-04-11T13:02:21.352Z,5.25
2023-04-11T13:03:25.106Z,5.78
2023-04-11T13:04:28.458Z,5.18
2023-04-11T13:05:32.516Z,5.38
2023-04-11T13:06:36.335Z,6.00
2023-04-11T13:07:40.019Z,5.35
2023-04-11T13:08:43.403Z,5.03
2023-04-11T13:09:46.284Z,5.68
2023-04-11T13:10:50.286Z,5.03
2023-04-11T13:11:52.586Z,6.53
2023-04-11T13:12:58.652Z,6.97
2023-04-11T13:14:03.101Z,6.32
2023-04-11T13:15:08.441Z,7.05
2023-04-11T13:16:12.618Z,6.05
2023-04-11T13:17:15.618Z,5.05
2023-04-11T13:18:19.309Z,4.00
2023-04-11T13:19:22.761Z,7.00
2023-04-11T13:20:26.497Z,5.72
2023-04-11T13:21:29.280Z,5.53
2023-04-11T13:22:32.765Z,5.53
2023-04-11T13:23:38.296Z,7.10
2023-04-11T13:24:41.882Z,5.72
2023-04-11T13:25:45.421Z,6.50
2023-04-11T13:26:48.452Z,5.13
2023-04-11T13:27:51.954Z,6.30
2023-04-11T13:28:54.889Z,7.70
2023-04-11T13:29:58.516Z,5.07
2023-04-11T13:31:02.490Z,6.57
2023-04-11T13:32:05.071Z,7.53
2023-04-11T13:33:09.479Z,6.47
2023-04-11T13:34:11.966Z,8.95
2023-04-11T13:35:15.332Z,6.03
2023-04-11T13:36:17.632Z,7.25
2023-04-11T13:37:21.115Z,6.95
2023-04-11T13:38:25.848Z,4.45
2023-04-11T13:39:29.560Z,8.30
2023-04-11T13:40:32.900Z,6.23
2023-04-11T13:41:35.324Z,5.78
2023-04-11T13:42:39.773Z,5.22
2023-04-11T13:43:42.823Z,6.65
2023-04-11T13:44:47.065Z,6.13
2023-04-11T13:45:50.612Z,5.38
2023-04-11T13:46:54.057Z,4.88
2023-04-11T13:47:58.119Z,4.68
2023-04-11T13:49:01.667Z,4.95
2023-04-11T13:50:05.677Z,8.75
2023-04-11T13:51:09.165Z,4.50
2023-04-11T13:52:12.763Z,7.80
2023-04-11T13:53:15.197Z,5.18
2023-04-11T13:54:18.679Z,6.50
2023-04-11T13:55:23.868Z,5.75
2023-04-11T13:56:28.367Z,6.95
2023-04-11T13:57:31.043Z,4.07
2023-04-11T13:58:34.494Z,5.75
2023-04-11T13:59:38.704Z,3.92
2023-04-11T14:00:41.065Z,3.53
2023-04-11T14:01:45.049Z,5.13
2023-04-11T14:02:50.344Z,5.90
2023-04-11T14:03:55.283Z,4.25
2023-04-11T14:04:58.528Z,4.75
2023-04-11T14:06:03.423Z,6.13
2023-04-11T14:07:06.844Z,8.70
2023-04-11T14:08:09.317Z,8.20